Time;durP1;ratioP1;P1;durP2;ratioP2;P2;SDS_P1;SDS_P2;PMS_P1;PMS_P2;Temp;Humidity;BMP_temperature;BMP_pressure;BME280_temperature;BME280_humidity;BME280_pressure;Samples;Min_cycle;Max_cycle;Signal;HPM_P1;HPM_P2
2022/09/29 00:01:18;;;;;;;;;5.25;3.50;;;25.59;100154.06;;;;117011;1193;24862;-56
2022/09/29 00:03:46;;;;;;;;;4.00;4.00;;;25.59;100152.61;;;;117147;1192;25215;-57
2022/09/29 00:06:16;;;;;;;;;6.75;6.00;;;25.57;100156.79;;;;117096;1192;25649;-62
2022/09/29 00:08:45;;;;;;;;;5.00;4.50;;;25.56;100165.64;;;;117118;1191;25498;-57
2022/09/29 00:11:17;;;;;;;;;6.67;3.33;;;25.55;100166.74;;;;117145;1190;25650;-57
2022/09/29 00:13:46;;;;;;;;;7.25;4.00;;;25.56;100162.58;;;;117189;1191;25654;-57
2022/09/29 00:16:14;;;;;;;;;6.75;5.00;;;25.55;100158.98;;;;117121;1192;25543;-56
2022/09/29 00:18:43;;;;;;;;;8.00;6.00;;;25.54;100155.16;;;;117102;1191;25427;-56
2022/09/29 00:21:18;;;;;;;;;5.50;5.25;;;25.53;100156.20;;;;117053;1192;25116;-56
2022/09/29 00:23:49;;;;;;;;;7.50;3.00;;;25.53;100157.05;;;;117418;1191;25357;-56
2022/09/29 00:26:22;;;;;;;;;8.75;5.25;;;25.54;100159.13;;;;117177;1192;25072;-56
2022/09/29 00:28:54;;;;;;;;;6.00;4.00;;;25.55;100148.45;;;;117188;1192;25744;-56
2022/09/29 00:31:24;;;;;;;;;4.00;4.00;;;25.55;100148.09;;;;117391;1191;24804;-56
2022/09/29 00:33:53;;;;;;;;;6.33;5.00;;;25.55;100150.20;;;;117196;1191;25044;-56
2022/09/29 00:36:23;;;;;;;;;6.00;5.00;;;25.54;100143.65;;;;117137;1192;25611;-56
2022/09/29 00:38:54;;;;;;;;;4.00;3.75;;;25.54;100140.17;;;;117098;1190;25086;-56
2022/09/29 00:41:24;;;;;;;;;6.00;5.00;;;25.52;100144.11;;;;117094;1192;25068;-56
2022/09/29 00:43:57;;;;;;;;;5.00;4.00;;;25.51;100144.35;;;;117396;1189;25294;-56
2022/09/29 00:46:30;;;;;;;;;4.33;4.33;;;25.50;100140.93;;;;117177;1192;25639;-57
2022/09/29 00:49:02;;;;;;;;;5.00;5.00;;;25.49;100144.31;;;;117169;1192;25598;-56
2022/09/29 00:51:33;;;;;;;;;3.00;3.00;;;25.49;100146.70;;;;117165;1191;25298;-57
2022/09/29 00:54:03;;;;;;;;;6.25;6.25;;;25.49;100146.19;;;;117169;1191;25051;-57
2022/09/29 00:56:33;;;;;;;;;5.50;3.75;;;25.48;100141.69;;;;117153;1192;24850;-56
2022/09/29 00:59:05;;;;;;;;;6.50;4.50;;;25.47;100134.63;;;;117139;1193;25646;-56
2022/09/29 01:01:34;;;;;;;;;5.75;4.00;;;25.48;100136.54;;;;117162;1191;25511;-56
2022/09/29 01:04:07;;;;;;;;;4.00;3.50;;;25.47;100135.54;;;;117142;1192;25164;-55
2022/09/29 01:06:44;;;;;;;;;8.50;6.00;;;25.47;100135.85;;;;117164;1191;24983;-57
2022/09/29 01:09:16;;;;;;;;;6.00;5.50;;;25.48;100139.52;;;;117122;1191;25211;-57
2022/09/29 01:11:44;;;;;;;;;5.33;4.67;;;25.48;100144.45;;;;117115;1193;25227;-56
2022/09/29 01:14:13;;;;;;;;;5.33;5.33;;;25.48;100146.10;;;;117427;1190;24733;-56
2022/09/29 01:16:42;;;;;;;;;5.00;5.00;;;25.47;100143.61;;;;117094;1192;25389;-57
2022/09/29 01:19:15;;;;;;;;;6.00;6.00;;;25.45;100145.33;;;;117054;1193;25441;-56
2022/09/29 01:21:49;;;;;;;;;5.75;4.75;;;25.43;100149.31;;;;117061;1193;25047;-56
2022/09/29 01:24:48;;;;;;;;;6.33;5.00;;;25.44;100148.69;;;;117081;1193;25145;-55
2022/09/29 01:27:23;;;;;;;;;7.00;5.00;;;25.44;100152.99;;;;117072;1193;25226;-56
2022/09/29 01:30:06;;;;;;;;;6.00;4.50;;;25.43;100153.77;;;;117146;1192;24674;-56
2022/09/29 01:33:09;;;;;;;;;7.00;5.50;;;25.43;100154.27;;;;117067;1193;25565;-55
2022/09/29 01:36:32;;;;;;;;;5.67;5.67;;;25.42;100160.80;;;;117121;1192;25116;-56
2022/09/29 01:39:21;;;;;;;;;6.00;6.00;;;25.48;100156.88;;;;116706;1194;24737;-55
2022/09/29 01:41:59;;;;;;;;;6.00;5.00;;;25.54;100151.43;;;;117096;1193;25535;-56
2022/09/29 01:44:35;;;;;;;;;6.00;5.00;;;25.56;100146.77;;;;117072;1192;25038;-56
2022/09/29 01:47:16;;;;;;;;;5.67;4.00;;;25.52;100145.89;;;;117129;1193;24921;-56
2022/09/29 01:49:49;;;;;;;;;5.00;4.50;;;25.48;100153.61;;;;117061;1193;24700;-56
2022/09/29 01:52:24;;;;;;;;;5.00;4.67;;;25.48;100150.92;;;;117060;1193;25757;-56
2022/09/29 01:55:01;;;;;;;;;10.33;7.33;;;25.48;100148.02;;;;117070;1193;24998;-56
2022/09/29 01:57:38;;;;;;;;;6.50;6.25;;;25.47;100151.54;;;;117066;1193;25006;-56
2022/09/29 02:00:10;;;;;;;;;8.25;5.75;;;25.45;100157.80;;;;117139;1191;24957;-57
2022/09/29 02:02:45;;;;;;;;;7.25;5.75;;;25.45;100163.59;;;;117048;1193;25068;-56
2022/09/29 02:05:36;;;;;;;;;4.00;3.75;;;25.44;100164.16;;;;117119;1192;25335;-56
2022/09/29 02:08:15;;;;;;;;;5.00;5.00;;;25.46;100164.20;;;;117125;1191;25238;-56
2022/09/29 02:10:54;;;;;;;;;6.25;6.00;;;25.48;100160.83;;;;117042;1193;25045;-56
2022/09/29 02:13:24;;;;;;;;;6.00;6.00;;;25.48;100160.48;;;;117046;1193;25175;-56
2022/09/29 02:15:54;;;;;;;;;5.50;5.00;;;25.47;100161.08;;;;117149;1193;25016;-56
2022/09/29 02:18:28;;;;;;;;;6.25;4.50;;;25.44;100156.64;;;;117083;1193;24825;-56
2022/09/29 02:20:56;;;;;;;;;6.00;5.50;;;25.44;100149.20;;;;117111;1193;25791;-55
2022/09/29 02:23:25;;;;;;;;;7.25;6.75;;;25.43;100144.66;;;;117188;1191;25217;-56
2022/09/29 02:25:54;;;;;;;;;2.75;2.75;;;25.42;100146.06;;;;117085;1191;25571;-56
2022/09/29 02:28:23;;;;;;;;;7.67;7.67;;;25.40;100147.08;;;;117042;1190;25256;-56
2022/09/29 02:30:52;;;;;;;;;8.25;7.00;;;25.39;100147.62;;;;117111;1192;25052;-56
2022/09/29 02:33:23;;;;;;;;;8.00;6.00;;;25.38;100148.29;;;;117107;1191;24931;-60
2022/09/29 02:36:11;;;;;;;;;7.75;7.00;;;25.38;100145.26;;;;117137;1191;24857;-56
2022/09/29 02:38:47;;;;;;;;;8.50;6.00;;;25.38;100142.48;;;;117326;1191;25224;-56
2022/09/29 02:41:24;;;;;;;;;9.00;6.75;;;25.40;100144.79;;;;117396;1191;25102;-57
2022/09/29 02:44:18;;;;;;;;;7.67;6.00;;;25.38;100144.23;;;;117097;1193;25021;-57
2022/09/29 02:47:12;;;;;;;;;6.50;6.00;;;25.39;100149.43;;;;117397;1191;24764;-56
2022/09/29 02:49:50;;;;;;;;;7.25;7.00;;;25.42;100147.86;;;;117177;1192;25877;-57
2022/09/29 02:52:43;;;;;;;;;6.25;6.00;;;25.43;100149.41;;;;117182;1192;25883;-56
2022/09/29 02:55:14;;;;;;;;;7.75;6.00;;;25.41;100147.19;;;;117391;1191;25234;-57
2022/09/29 02:57:57;;;;;;;;;8.50;7.00;;;25.40;100141.09;;;;117099;1193;25597;-56
2022/09/29 03:00:27;;;;;;;;;5.00;5.00;;;25.38;100136.50;;;;117393;1190;24861;-56
2022/09/29 03:02:55;;;;;;;;;9.25;8.25;;;25.37;100134.64;;;;117134;1191;25395;-57
2022/09/29 03:05:24;;;;;;;;;6.25;6.25;;;25.35;100133.05;;;;117062;1193;25194;-56
2022/09/29 03:07:53;;;;;;;;;6.75;5.75;;;25.34;100134.82;;;;117119;1193;25588;-57
2022/09/29 03:10:21;;;;;;;;;8.00;7.00;;;25.35;100130.66;;;;117082;1192;25051;-60
2022/09/29 03:12:54;;;;;;;;;9.67;8.00;;;25.34;100124.02;;;;117125;1191;25504;-59
2022/09/29 03:15:23;;;;;;;;;7.00;5.67;;;25.34;100121.36;;;;117152;1192;25095;-57
2022/09/29 03:17:55;;;;;;;;;10.75;9.00;;;25.34;100122.05;;;;117118;1193;25335;-57
2022/09/29 03:20:25;;;;;;;;;9.25;6.50;;;25.34;100124.61;;;;117415;1191;24987;-56
2022/09/29 03:22:57;;;;;;;;;5.75;4.25;;;25.34;100125.05;;;;117051;1191;25450;-56
2022/09/29 03:25:26;;;;;;;;;8.00;6.25;;;25.33;100119.16;;;;117114;1192;24976;-56
2022/09/29 03:27:54;;;;;;;;;5.67;4.33;;;25.33;100121.67;;;;117110;1193;25667;-57
2022/09/29 03:30:22;;;;;;;;;10.00;6.25;;;25.34;100122.21;;;;117044;1193;26009;-56
2022/09/29 03:32:51;;;;;;;;;5.00;5.00;;;25.33;100121.02;;;;117057;1193;25678;-57
2022/09/29 03:35:19;;;;;;;;;7.67;6.00;;;25.32;100122.45;;;;116967;1192;25597;-56
2022/09/29 03:37:47;;;;;;;;;9.00;6.00;;;25.32;100122.60;;;;116824;1192;25211;-58
2022/09/29 03:40:16;;;;;;;;;7.00;7.00;;;25.31;100128.58;;;;117074;1192;25055;-59
2022/09/29 03:42:46;;;;;;;;;7.00;5.00;;;25.31;100125.05;;;;117093;1192;25865;-57
2022/09/29 03:45:14;;;;;;;;;6.75;6.75;;;25.30;100124.55;;;;117402;1190;24922;-56
2022/09/29 03:47:43;;;;;;;;;8.00;6.00;;;25.30;100120.06;;;;117122;1190;25710;-56
2022/09/29 03:50:12;;;;;;;;;11.33;8.67;;;25.30;100120.60;;;;117097;1191;25541;-56
2022/09/29 03:52:40;;;;;;;;;9.00;7.75;;;25.30;100123.52;;;;117148;1192;25472;-57
2022/09/29 03:55:09;;;;;;;;;6.00;6.00;;;25.30;100127.84;;;;117110;1191;25065;-57
2022/09/29 03:57:37;;;;;;;;;9.50;6.50;;;25.30;100130.13;;;;117183;1191;25661;-56
2022/09/29 04:00:06;;;;;;;;;8.75;8.00;;;25.29;100132.98;;;;117044;1193;24844;-56
2022/09/29 04:02:35;;;;;;;;;7.00;6.00;;;25.29;100135.00;;;;117073;1194;25383;-56
2022/09/29 04:05:04;;;;;;;;;8.75;6.75;;;25.29;100135.10;;;;117053;1193;25564;-56
2022/09/29 04:07:33;;;;;;;;;8.25;7.00;;;25.28;100132.30;;;;117087;1194;24953;-57
2022/09/29 04:10:01;;;;;;;;;6.00;4.75;;;25.29;100132.05;;;;117045;1191;24710;-58
2022/09/29 04:12:29;;;;;;;;;9.50;6.00;;;25.28;100130.77;;;;117082;1192;25621;-65
2022/09/29 04:14:58;;;;;;;;;9.25;8.00;;;25.26;100133.37;;;;117082;1191;24835;-56
2022/09/29 04:17:26;;;;;;;;;6.67;6.67;;;25.25;100137.73;;;;117036;1193;26002;-59
2022/09/29 04:19:55;;;;;;;;;7.50;7.00;;;25.25;100135.63;;;;117057;1191;25641;-62
2022/09/29 04:22:23;;;;;;;;;9.50;7.75;;;25.26;100136.10;;;;117025;1190;24820;-65
2022/09/29 04:24:52;;;;;;;;;7.50;6.75;;;25.26;100135.46;;;;117109;1190;25454;-65
2022/09/29 04:27:20;;;;;;;;;8.50;7.50;;;25.25;100127.20;;;;117006;1193;25173;-65
2022/09/29 04:29:49;;;;;;;;;8.75;7.25;;;25.24;100126.71;;;;117176;1192;25018;-66
2022/09/29 04:32:17;;;;;;;;;8.75;7.50;;;25.24;100129.48;;;;117171;1191;25119;-66
2022/09/29 04:34:47;;;;;;;;;7.00;6.00;;;25.23;100133.83;;;;117090;1191;25370;-60
2022/09/29 04:37:15;;;;;;;;;6.00;4.50;;;25.22;100138.92;;;;117161;1192;24954;-57
2022/09/29 04:39:44;;;;;;;;;11.50;8.50;;;25.25;100142.13;;;;117036;1193;25162;-57
2022/09/29 04:42:12;;;;;;;;;10.00;8.00;;;25.27;100140.07;;;;117164;1192;24908;-58
2022/09/29 04:44:40;;;;;;;;;11.50;9.00;;;25.27;100143.14;;;;117143;1191;25698;-57
2022/09/29 04:47:09;;;;;;;;;7.00;6.00;;;25.25;100143.25;;;;117059;1192;25178;-58
2022/09/29 04:49:37;;;;;;;;;9.50;8.00;;;25.24;100143.30;;;;117101;1192;24705;-57
2022/09/29 04:52:05;;;;;;;;;13.00;9.75;;;25.25;100143.83;;;;117069;1193;25577;-57
2022/09/29 04:54:34;;;;;;;;;9.00;9.00;;;25.25;100144.93;;;;117121;1190;25052;-57
2022/09/29 04:57:06;;;;;;;;;10.25;8.25;;;25.26;100151.72;;;;117092;1192;25186;-57
2022/09/29 04:59:34;;;;;;;;;14.00;10.33;;;25.27;100155.41;;;;117400;1190;25622;-56
2022/09/29 05:02:02;;;;;;;;;13.33;8.33;;;25.27;100152.73;;;;117041;1191;25168;-57
2022/09/29 05:04:31;;;;;;;;;14.25;8.00;;;25.27;100155.48;;;;117049;1193;25170;-57
2022/09/29 05:06:59;;;;;;;;;12.50;9.00;;;25.27;100160.59;;;;117132;1191;25000;-57
2022/09/29 05:09:28;;;;;;;;;10.67;8.67;;;25.28;100163.66;;;;117056;1193;24995;-57
2022/09/29 05:12:01;;;;;;;;;13.00;10.00;;;25.27;100165.19;;;;117145;1192;25414;-56
2022/09/29 05:14:29;;;;;;;;;7.25;7.25;;;25.28;100164.27;;;;117175;1190;25604;-57
2022/09/29 05:16:58;;;;;;;;;11.75;9.75;;;25.28;100163.95;;;;117015;1193;25592;-56
2022/09/29 05:19:26;;;;;;;;;10.50;10.50;;;25.27;100166.09;;;;117412;1190;24792;-57
2022/09/29 05:21:55;;;;;;;;;12.33;10.67;;;25.28;100168.29;;;;117111;1191;25305;-63
2022/09/29 05:24:24;;;;;;;;;10.00;8.00;;;25.28;100167.23;;;;117176;1191;25272;-64
2022/09/29 05:26:53;;;;;;;;;9.00;9.00;;;25.28;100164.27;;;;117378;1190;25148;-56
2022/09/29 05:29:25;;;;;;;;;14.33;13.00;;;25.29;100164.04;;;;117174;1191;25529;-56
2022/09/29 05:31:54;;;;;;;;;12.25;11.00;;;25.30;100161.50;;;;117095;1190;25484;-56
2022/09/29 05:34:22;;;;;;;;;12.00;10.00;;;25.30;100159.36;;;;117074;1191;25110;-56
2022/09/29 05:36:50;;;;;;;;;13.50;9.00;;;25.31;100157.39;;;;117056;1192;25540;-57
2022/09/29 05:39:19;;;;;;;;;12.67;10.67;;;25.32;100156.89;;;;117181;1190;25242;-57
2022/09/29 05:41:48;;;;;;;;;12.25;10.50;;;25.33;100159.44;;;;117095;1192;25370;-56
2022/09/29 05:44:17;;;;;;;;;12.00;11.00;;;25.34;100159.11;;;;117093;1192;25593;-58
2022/09/29 05:46:45;;;;;;;;;10.50;10.00;;;25.36;100158.77;;;;117099;1192;25156;-57
2022/09/29 05:49:13;;;;;;;;;13.00;10.50;;;25.37;100155.33;;;;117087;1193;25528;-56
2022/09/29 05:51:42;;;;;;;;;10.00;8.67;;;25.37;100151.52;;;;117174;1191;25124;-57
2022/09/29 05:54:10;;;;;;;;;10.00;9.50;;;25.38;100151.64;;;;117173;1191;24738;-58
2022/09/29 05:56:39;;;;;;;;;16.00;10.33;;;25.38;100158.33;;;;117142;1190;25368;-57
2022/09/29 05:59:12;;;;;;;;;11.67;8.67;;;25.38;100161.04;;;;117126;1192;25407;-57
2022/09/29 06:01:41;;;;;;;;;9.00;8.00;;;25.40;100161.96;;;;117173;1193;25357;-57
2022/09/29 06:04:09;;;;;;;;;11.00;8.25;;;25.40;100166.68;;;;117195;1192;24938;-57
2022/09/29 06:06:39;;;;;;;;;12.25;8.00;;;25.42;100167.84;;;;117081;1192;25619;-57
2022/09/29 06:09:07;;;;;;;;;13.00;9.33;;;25.41;100163.80;;;;117147;1192;25423;-57
2022/09/29 06:11:36;;;;;;;;;14.00;11.00;;;25.42;100167.91;;;;117124;1193;25500;-56
2022/09/29 06:14:04;;;;;;;;;11.00;9.25;;;25.42;100168.86;;;;117124;1192;25364;-57
2022/09/29 06:16:33;;;;;;;;;9.50;6.75;;;25.43;100169.11;;;;117095;1191;25463;-56
2022/09/29 06:19:03;;;;;;;;;9.50;8.75;;;25.45;100169.30;;;;117408;1189;24997;-57
2022/09/29 06:21:33;;;;;;;;;12.00;11.50;;;25.46;100166.80;;;;117137;1193;25302;-57
2022/09/29 06:24:02;;;;;;;;;11.50;9.00;;;25.47;100168.89;;;;117121;1191;25604;-56
2022/09/29 06:26:31;;;;;;;;;13.50;7.75;;;25.48;100167.30;;;;117180;1192;25250;-57
2022/09/29 06:29:00;;;;;;;;;10.50;9.25;;;25.49;100167.58;;;;117162;1191;25380;-57
2022/09/29 06:31:30;;;;;;;;;11.00;9.25;;;25.50;100167.67;;;;117086;1193;25367;-56
2022/09/29 06:34:01;;;;;;;;;13.25;10.00;;;25.52;100168.14;;;;117160;1192;24866;-57
2022/09/29 06:39:22;;;;;;;;;10.67;7.33;;;25.56;100171.79;;;;117136;1193;25004;-56
2022/09/29 06:41:54;;;;;;;;;8.00;6.67;;;25.57;100176.35;;;;117167;1190;25063;-57
2022/09/29 06:44:25;;;;;;;;;10.33;8.33;;;25.59;100179.26;;;;117405;1191;25611;-57
2022/09/29 06:46:54;;;;;;;;;14.00;10.33;;;25.61;100179.75;;;;117194;1191;25140;-57
2022/09/29 06:49:23;;;;;;;;;8.67;8.00;;;25.62;100179.29;;;;117094;1191;25322;-57
2022/09/29 06:51:51;;;;;;;;;9.00;7.00;;;25.64;100180.40;;;;117153;1191;25006;-56
2022/09/29 06:54:23;;;;;;;;;10.00;8.67;;;25.65;100181.28;;;;117010;1191;25354;-56
2022/09/29 06:56:54;;;;;;;;;9.50;9.00;;;25.65;100181.27;;;;117182;1191;26628;-57
2022/09/29 06:59:22;;;;;;;;;11.50;11.00;;;25.66;100177.84;;;;117411;1191;25618;-57
2022/09/29 07:01:51;;;;;;;;;13.00;8.75;;;25.67;100181.53;;;;117105;1192;25563;-57
2022/09/29 07:04:20;;;;;;;;;7.50;6.25;;;25.68;100176.93;;;;117187;1192;24972;-57
2022/09/29 07:06:50;;;;;;;;;11.00;8.67;;;25.68;100179.34;;;;117167;1192;24879;-56
2022/09/29 07:09:19;;;;;;;;;9.25;8.00;;;25.69;100175.37;;;;117090;1193;25245;-56
2022/09/29 07:11:50;;;;;;;;;10.00;8.00;;;25.71;100171.11;;;;117048;1193;25127;-56
2022/09/29 07:14:24;;;;;;;;;10.00;7.25;;;25.71;100169.98;;;;117081;1193;25326;-56
2022/09/29 07:16:53;;;;;;;;;9.50;8.00;;;25.71;100168.96;;;;117114;1192;25268;-56
2022/09/29 07:19:22;;;;;;;;;4.25;4.25;;;25.72;100169.29;;;;117129;1193;25650;-57
2022/09/29 07:21:50;;;;;;;;;9.25;7.50;;;25.73;100174.42;;;;117028;1193;25187;-56
2022/09/29 07:24:18;;;;;;;;;10.50;9.25;;;25.73;100184.39;;;;117081;1192;25637;-57
2022/09/29 07:26:47;;;;;;;;;10.00;8.50;;;25.73;100182.69;;;;117091;1192;25679;-57
2022/09/29 07:29:15;;;;;;;;;9.00;9.00;;;25.73;100179.02;;;;117057;1192;25377;-57
2022/09/29 07:31:45;;;;;;;;;12.33;9.00;;;25.74;100176.30;;;;117093;1193;25189;-57
2022/09/29 07:34:21;;;;;;;;;12.00;10.25;;;25.74;100174.46;;;;117028;1193;25018;-57
2022/09/29 07:36:50;;;;;;;;;14.00;10.25;;;25.76;100169.12;;;;117004;1192;24971;-57
2022/09/29 07:39:21;;;;;;;;;9.67;9.00;;;25.74;100170.70;;;;117107;1193;25557;-56
2022/09/29 07:41:50;;;;;;;;;9.00;8.00;;;25.74;100167.85;;;;117156;1193;25220;-56
2022/09/29 07:44:19;;;;;;;;;9.67;5.67;;;25.73;100167.09;;;;117041;1192;25576;-57
2022/09/29 07:46:48;;;;;;;;;7.00;7.00;;;25.74;100163.66;;;;117083;1193;25323;-56
2022/09/29 07:49:17;;;;;;;;;9.33;8.67;;;25.75;100158.18;;;;117127;1192;24992;-57
2022/09/29 07:51:46;;;;;;;;;5.50;5.50;;;25.75;100155.52;;;;117142;1192;24965;-57
2022/09/29 07:54:15;;;;;;;;;12.25;9.50;;;25.76;100159.27;;;;117035;1193;25687;-56
2022/09/29 07:56:44;;;;;;;;;11.00;8.25;;;25.78;100159.15;;;;117054;1193;25743;-57
2022/09/29 07:59:12;;;;;;;;;6.25;5.00;;;25.80;100161.89;;;;116996;1194;24977;-56
2022/09/29 08:01:40;;;;;;;;;8.67;7.00;;;25.83;100156.89;;;;117084;1192;25271;-57
2022/09/29 08:04:09;;;;;;;;;9.00;9.00;;;25.85;100151.40;;;;117063;1193;24792;-57
2022/09/29 08:06:38;;;;;;;;;9.50;8.25;;;25.87;100153.05;;;;117058;1193;25552;-56
2022/09/29 08:09:07;;;;;;;;;12.25;9.50;;;25.89;100154.14;;;;117041;1193;25738;-58
2022/09/29 08:11:40;;;;;;;;;9.25;9.00;;;25.90;100154.76;;;;117009;1193;25177;-57
2022/09/29 08:14:10;;;;;;;;;8.00;7.00;;;25.90;100153.38;;;;117058;1193;25241;-56
2022/09/29 08:16:39;;;;;;;;;7.00;7.00;;;25.94;100149.44;;;;117129;1193;24751;-57
2022/09/29 08:19:08;;;;;;;;;8.25;7.50;;;25.95;100142.57;;;;117065;1192;25823;-56
2022/09/29 08:21:37;;;;;;;;;11.00;9.00;;;25.97;100140.54;;;;117048;1193;24948;-57
2022/09/29 08:24:06;;;;;;;;;7.75;6.50;;;25.97;100137.84;;;;117045;1192;24972;-56
2022/09/29 08:26:36;;;;;;;;;9.25;7.00;;;26.00;100137.77;;;;117030;1193;25438;-57
2022/09/29 08:29:13;;;;;;;;;7.00;6.00;;;26.03;100138.94;;;;117095;1192;25499;-58
2022/09/29 08:31:46;;;;;;;;;6.50;6.00;;;26.07;100135.73;;;;117032;1193;25419;-56
2022/09/29 08:34:14;;;;;;;;;10.33;7.33;;;26.09;100135.27;;;;117046;1193;25264;-56
2022/09/29 08:36:44;;;;;;;;;8.00;5.50;;;26.11;100139.98;;;;116885;1193;24999;-57
2022/09/29 08:39:14;;;;;;;;;8.50;6.50;;;26.12;100140.46;;;;117060;1192;25448;-57
2022/09/29 08:41:48;;;;;;;;;8.33;7.33;;;26.13;100138.63;;;;117124;1192;24994;-57
2022/09/29 08:44:38;;;;;;;;;12.25;8.75;;;26.16;100134.87;;;;117142;1193;25388;-57
2022/09/29 08:47:31;;;;;;;;;7.25;5.50;;;26.19;100134.88;;;;117045;1193;25599;-57
2022/09/29 08:50:16;;;;;;;;;7.00;6.25;;;26.25;100133.06;;;;117044;1193;25182;-57
2022/09/29 08:52:50;;;;;;;;;6.00;5.00;;;26.28;100134.17;;;;117059;1192;25451;-57
2022/09/29 08:55:28;;;;;;;;;10.75;9.00;;;26.28;100134.83;;;;117065;1192;25035;-56
2022/09/29 08:57:58;;;;;;;;;7.33;7.33;;;26.29;100135.15;;;;117162;1193;25550;-56
2022/09/29 09:00:54;;;;;;;;;10.67;7.67;;;26.31;100132.29;;;;117143;1193;25147;-55
2022/09/29 09:03:40;;;;;;;;;5.50;5.00;;;26.30;100131.00;;;;117077;1191;25397;-57
2022/09/29 09:06:24;;;;;;;;;8.00;8.00;;;26.29;100134.33;;;;117084;1191;24900;-57
2022/09/29 09:09:03;;;;;;;;;9.00;7.33;;;26.28;100135.05;;;;117032;1193;25214;-57
2022/09/29 09:11:37;;;;;;;;;8.75;7.50;;;26.30;100139.79;;;;117077;1191;25106;-58
2022/09/29 09:14:44;;;;;;;;;7.67;7.00;;;26.30;100141.27;;;;117392;1191;25453;-59
2022/09/29 09:17:40;;;;;;;;;8.50;7.25;;;26.36;100144.23;;;;117168;1192;25206;-59
2022/09/29 09:20:31;;;;;;;;;6.67;6.67;;;26.39;100144.43;;;;117099;1193;25130;-61
2022/09/29 09:23:20;;;;;;;;;6.50;6.50;;;26.38;100144.86;;;;117153;1192;25662;-63
2022/09/29 09:25:53;;;;;;;;;7.25;6.00;;;26.42;100147.14;;;;117405;1190;24845;-59
2022/09/29 09:29:03;;;;;;;;;7.00;6.50;;;26.44;100149.54;;;;117055;1193;25490;-59
2022/09/29 09:31:39;;;;;;;;;6.00;6.00;;;26.48;100145.84;;;;116814;1194;24818;-62
2022/09/29 09:34:31;;;;;;;;;8.67;7.33;;;26.51;100142.33;;;;116711;1196;24962;-67
2022/09/29 09:37:17;;;;;;;;;5.75;5.75;;;26.55;100142.27;;;;117052;1193;25089;-66
2022/09/29 09:40:07;;;;;;;;;4.33;3.33;;;26.58;100139.24;;;;117124;1191;25605;-65
2022/09/29 09:42:39;;;;;;;;;8.50;7.25;;;26.55;100138.63;;;;117366;1191;25347;-62
2022/09/29 09:45:33;;;;;;;;;6.00;6.00;;;26.51;100137.02;;;;117397;1190;25474;-65
2022/09/29 09:48:30;;;;;;;;;9.50;7.75;;;26.51;100139.18;;;;117382;1190;25285;-57
2022/09/29 09:51:01;;;;;;;;;6.75;6.00;;;26.54;100135.84;;;;117132;1192;25542;-58
2022/09/29 09:53:36;;;;;;;;;4.75;4.75;;;26.52;100130.34;;;;117104;1193;25786;-58
2022/09/29 09:56:29;;;;;;;;;7.75;7.50;;;26.48;100128.77;;;;117009;1192;25016;-58
2022/09/29 09:59:26;;;;;;;;;9.25;9.00;;;26.47;100123.73;;;;117083;1193;25586;-58
2022/09/29 10:01:55;;;;;;;;;8.25;6.00;;;26.51;100121.06;;;;116987;1193;24839;-58
2022/09/29 10:04:24;;;;;;;;;11.25;8.00;;;26.57;100115.31;;;;117000;1193;25109;-58
2022/09/29 10:06:54;;;;;;;;;11.25;10.00;;;26.53;100112.62;;;;117036;1193;24906;-58
2022/09/29 10:09:22;;;;;;;;;8.67;8.33;;;26.52;100116.48;;;;117107;1193;25697;-58
2022/09/29 10:11:51;;;;;;;;;7.75;7.50;;;26.51;100113.66;;;;117090;1193;25602;-57
2022/09/29 10:14:26;;;;;;;;;7.50;7.00;;;26.50;100116.24;;;;117148;1189;25614;-57
2022/09/29 10:17:01;;;;;;;;;8.50;8.00;;;26.50;100120.55;;;;117111;1191;25551;-57
2022/09/29 10:20:04;;;;;;;;;8.00;8.00;;;26.52;100116.46;;;;117144;1191;25271;-58
2022/09/29 10:22:33;;;;;;;;;11.00;7.75;;;26.52;100113.42;;;;117386;1191;24889;-58
2022/09/29 10:25:13;;;;;;;;;12.33;12.00;;;26.51;100113.34;;;;117181;1192;25013;-57
2022/09/29 10:27:49;;;;;;;;;9.33;8.67;;;26.51;100101.33;;;;117377;1189;24862;-58
2022/09/29 10:30:31;;;;;;;;;9.50;8.50;;;26.50;100103.73;;;;117100;1192;25076;-58
2022/09/29 10:33:01;;;;;;;;;10.00;9.50;;;26.50;100098.30;;;;117240;1191;25629;-58
2022/09/29 10:35:36;;;;;;;;;8.50;7.25;;;26.50;100098.56;;;;117034;1193;25123;-57
2022/09/29 10:38:26;;;;;;;;;10.67;10.00;;;26.50;100095.75;;;;117044;1193;25081;-57
2022/09/29 10:41:02;;;;;;;;;7.75;7.00;;;26.53;100096.18;;;;117031;1193;25653;-57
2022/09/29 10:43:36;;;;;;;;;8.00;8.00;;;26.56;100092.83;;;;117054;1193;25085;-57
2022/09/29 10:46:35;;;;;;;;;13.67;10.00;;;26.54;100089.25;;;;117127;1191;24904;-58
2022/09/29 10:49:20;;;;;;;;;9.25;8.75;;;26.56;100087.02;;;;117138;1193;25242;-58
2022/09/29 10:51:56;;;;;;;;;8.00;7.33;;;26.56;100084.36;;;;117101;1192;24944;-58
2022/09/29 10:54:25;;;;;;;;;7.75;7.75;;;26.54;100080.36;;;;116999;1193;25162;-57
2022/09/29 10:56:55;;;;;;;;;11.00;9.00;;;26.52;100077.87;;;;117128;1193;25704;-59
2022/09/29 10:59:25;;;;;;;;;9.00;9.00;;;26.50;100079.33;;;;117060;1193;24931;-58
2022/09/29 11:01:59;;;;;;;;;9.67;8.67;;;26.49;100076.86;;;;117023;1192;24740;-58
2022/09/29 11:04:32;;;;;;;;;10.33;9.33;;;26.49;100078.02;;;;117088;1192;25114;-59
2022/09/29 11:07:10;;;;;;;;;10.25;7.75;;;26.48;100072.27;;;;117015;1193;25118;-61
2022/09/29 11:09:40;;;;;;;;;9.25;9.00;;;26.47;100064.20;;;;117000;1192;25584;-62
2022/09/29 11:12:31;;;;;;;;;10.75;8.50;;;26.47;100063.12;;;;117048;1193;25494;-58
2022/09/29 11:15:01;;;;;;;;;10.00;9.25;;;26.46;100061.96;;;;117123;1193;25375;-58
2022/09/29 11:17:36;;;;;;;;;9.00;8.50;;;26.46;100062.66;;;;117099;1193;25575;-57
2022/09/29 11:20:10;;;;;;;;;8.67;8.00;;;26.45;100060.53;;;;117009;1193;25136;-59
2022/09/29 11:22:55;;;;;;;;;8.50;7.00;;;26.46;100056.39;;;;117009;1193;25670;-58
2022/09/29 11:25:36;;;;;;;;;10.33;8.33;;;26.46;100051.73;;;;117053;1193;25016;-59
2022/09/29 11:28:07;;;;;;;;;7.50;7.50;;;26.44;100046.58;;;;117065;1193;24973;-58
2022/09/29 11:31:13;;;;;;;;;9.00;8.50;;;26.42;100047.04;;;;117025;1193;25310;-58
2022/09/29 11:33:48;;;;;;;;;7.00;7.00;;;26.40;100041.04;;;;117053;1193;25521;-59
2022/09/29 11:36:35;;;;;;;;;12.00;9.00;;;26.40;100038.73;;;;117047;1193;25666;-57
2022/09/29 11:39:54;;;;;;;;;7.00;7.00;;;26.40;100039.96;;;;117021;1193;25656;-58
2022/09/29 11:42:49;;;;;;;;;15.50;12.75;;;26.42;100045.40;;;;116798;1194;25183;-58
2022/09/29 11:45:22;;;;;;;;;7.00;7.00;;;26.45;100044.23;;;;117138;1191;25443;-57
2022/09/29 11:48:20;;;;;;;;;12.50;9.00;;;26.45;100043.92;;;;117083;1193;24998;-57
2022/09/29 11:50:58;;;;;;;;;6.67;4.00;;;26.44;100047.42;;;;116999;1192;24788;-57
2022/09/29 11:53:49;;;;;;;;;10.67;8.33;;;26.43;100047.23;;;;117112;1193;25281;-58
2022/09/29 11:56:26;;;;;;;;;7.00;6.00;;;26.43;100046.48;;;;116984;1192;25758;-58
2022/09/29 11:59:17;;;;;;;;;8.00;6.50;;;26.43;100041.50;;;;117083;1193;25470;-58
2022/09/29 12:01:45;;;;;;;;;13.25;6.25;;;26.41;100043.16;;;;117029;1193;24716;-58
2022/09/29 12:04:51;;;;;;;;;7.33;7.00;;;26.42;100037.28;;;;116978;1193;25109;-58
2022/09/29 12:07:29;;;;;;;;;7.50;6.75;;;26.39;100036.23;;;;117108;1192;25523;-57
2022/09/29 12:10:11;;;;;;;;;9.67;7.33;;;26.38;100032.24;;;;117107;1193;25529;-57
2022/09/29 12:13:10;;;;;;;;;6.50;5.50;;;26.40;100035.48;;;;117038;1193;24805;-58
2022/09/29 12:16:15;;;;;;;;;9.00;6.00;;;26.41;100038.84;;;;117038;1193;24889;-58
2022/09/29 12:18:57;;;;;;;;;7.67;7.67;;;26.44;100040.23;;;;116967;1192;25397;-56
2022/09/29 12:21:33;;;;;;;;;9.50;8.00;;;26.46;100042.08;;;;117020;1193;25974;-57
2022/09/29 12:24:05;;;;;;;;;9.75;6.50;;;26.45;100044.63;;;;117050;1193;24675;-57
2022/09/29 12:26:34;;;;;;;;;10.50;9.00;;;26.46;100044.27;;;;117067;1193;25643;-57
2022/09/29 12:29:30;;;;;;;;;8.00;7.50;;;26.42;100044.73;;;;117020;1192;25144;-58
2022/09/29 12:32:03;;;;;;;;;7.00;7.00;;;26.44;100046.11;;;;117045;1193;24972;-59
2022/09/29 12:34:35;;;;;;;;;8.00;7.50;;;26.47;100046.62;;;;117120;1192;25132;-58